Time;durP1;ratioP1;P1;durP2;ratioP2;P2;SDS_P1;SDS_P2;PMS_P1;PMS_P2;Temp;Humidity;BMP_temperature;BMP_pressure;BME280_temperature;BME280_humidity;BME280_pressure;Samples;Min_cycle;Max_cycle;Signal;HPM_P1;HPM_P2
2022/03/31 00:02:26;;;;;;;7.50;6.70;;;8.10;92.60;;;;;;5070787;28;20451;-44
2022/03/31 00:04:53;;;;;;;10.17;6.60;;;8.30;92.20;;;;;;5071100;28;20897;-46
2022/03/31 00:07:20;;;;;;;7.70;6.83;;;8.40;91.90;;;;;;5071102;28;20439;-44
2022/03/31 00:09:47;;;;;;;8.47;6.60;;;8.60;91.80;;;;;;5070525;28;20488;-46
2022/03/31 00:12:15;;;;;;;9.00;6.17;;;8.70;91.70;;;;;;5071159;28;20445;-44
2022/03/31 00:14:42;;;;;;;9.37;6.37;;;8.60;91.30;;;;;;5070931;28;20444;-44
2022/03/31 00:17:09;;;;;;;7.30;6.60;;;8.70;91.50;;;;;;5070953;28;20444;-47
2022/03/31 00:19:37;;;;;;;9.37;6.70;;;8.70;91.40;;;;;;5070650;28;20464;-44
2022/03/31 00:22:04;;;;;;;7.37;6.07;;;8.60;91.30;;;;;;5070528;28;20479;-45
2022/03/31 00:24:31;;;;;;;13.60;7.33;;;8.60;91.10;;;;;;5071069;28;20521;-44
2022/03/31 00:26:58;;;;;;;8.33;7.00;;;8.70;91.10;;;;;;5070876;28;20527;-45
2022/03/31 00:29:27;;;;;;;7.90;6.17;;;8.70;91.10;;;;;;5074156;28;20486;-44
2022/03/31 00:31:54;;;;;;;10.27;6.40;;;8.70;91.00;;;;;;5074756;28;20531;-47
2022/03/31 00:34:21;;;;;;;7.77;5.47;;;8.70;90.90;;;;;;5074574;28;20446;-44
2022/03/31 00:36:48;;;;;;;9.80;7.43;;;8.70;90.80;;;;;;5074454;28;20475;-43
2022/03/31 00:39:32;;;;;;;10.20;6.10;;;8.60;91.00;;;;;;5074350;28;20486;-45
2022/03/31 00:41:59;;;;;;;8.83;6.23;;;8.40;91.30;;;;;;5074604;28;20535;-44
2022/03/31 00:44:28;;;;;;;12.83;7.23;;;8.40;91.40;;;;;;5074337;28;20451;-44
2022/03/31 00:46:56;;;;;;;11.17;8.60;;;8.30;91.30;;;;;;5074310;28;20445;-44
2022/03/31 00:49:25;;;;;;;12.43;9.97;;;8.30;91.60;;;;;;5074011;28;21050;-46
2022/03/31 00:51:54;;;;;;;19.03;11.33;;;8.40;91.60;;;;;;5074593;28;20448;-43
2022/03/31 00:54:23;;;;;;;19.50;9.07;;;8.50;91.60;;;;;;5074403;28;20444;-44
2022/03/31 00:56:51;;;;;;;11.97;8.17;;;8.50;91.40;;;;;;5074244;28;20478;-48
2022/03/31 00:59:19;;;;;;;9.83;7.50;;;8.30;91.30;;;;;;5073746;28;20973;-45
2022/03/31 01:01:49;;;;;;;13.50;9.40;;;7.90;91.70;;;;;;5073854;28;20452;-47
2022/03/31 01:04:16;;;;;;;16.63;11.50;;;7.80;92.00;;;;;;5074015;28;20443;-44
2022/03/31 01:06:44;;;;;;;17.30;12.07;;;7.70;92.30;;;;;;5074099;28;20859;-44
2022/03/31 01:09:14;;;;;;;14.83;10.70;;;7.60;92.70;;;;;;5073840;28;20533;-44
2022/03/31 01:11:47;;;;;;;12.30;6.90;;;7.80;92.60;;;;;;5073899;28;20455;-48
2022/03/31 01:14:14;;;;;;;8.77;7.10;;;7.90;92.30;;;;;;5073820;28;20848;-44
2022/03/31 01:16:42;;;;;;;8.30;6.67;;;8.00;92.10;;;;;;5074110;28;20531;-44
2022/03/31 01:19:12;;;;;;;9.00;6.90;;;8.10;91.90;;;;;;5074514;28;20479;-44
2022/03/31 01:21:41;;;;;;;8.03;7.23;;;8.10;91.70;;;;;;5074157;28;20476;-45
2022/03/31 01:24:12;;;;;;;9.40;7.43;;;8.20;91.70;;;;;;5073166;28;20451;-44
2022/03/31 01:26:39;;;;;;;8.27;6.80;;;8.20;91.60;;;;;;5073948;28;20448;-43
2022/03/31 01:29:08;;;;;;;9.00;7.73;;;8.20;91.50;;;;;;5073463;28;20509;-44
2022/03/31 01:31:36;;;;;;;9.37;7.80;;;8.20;91.70;;;;;;5073860;28;20940;-44
2022/03/31 01:34:03;;;;;;;9.27;7.87;;;8.20;91.60;;;;;;5073551;28;20963;-44
2022/03/31 01:36:31;;;;;;;10.63;7.00;;;8.20;91.60;;;;;;5073824;28;20865;-44
2022/03/31 01:38:58;;;;;;;9.27;7.43;;;8.30;91.70;;;;;;5072613;28;20828;-44
2022/03/31 01:41:27;;;;;;;10.10;7.63;;;8.30;91.70;;;;;;5073234;28;20444;-44
2022/03/31 01:43:54;;;;;;;12.07;7.30;;;8.30;91.70;;;;;;5073251;28;20994;-44
2022/03/31 01:46:21;;;;;;;8.03;7.20;;;8.20;91.70;;;;;;5073166;28;20455;-44
2022/03/31 01:48:48;;;;;;;13.87;7.30;;;8.10;91.70;;;;;;5073107;28;20487;-43
2022/03/31 01:51:15;;;;;;;10.87;6.80;;;8.10;91.90;;;;;;5073351;28;20445;-45
2022/03/31 01:53:42;;;;;;;7.87;6.90;;;8.10;91.80;;;;;;5073228;28;20536;-44
2022/03/31 01:56:09;;;;;;;10.03;6.70;;;8.10;91.90;;;;;;5072992;28;20497;-45
2022/03/31 01:58:38;;;;;;;9.50;7.53;;;8.10;91.80;;;;;;5072986;28;20848;-44
2022/03/31 02:01:06;;;;;;;12.23;9.30;;;8.20;91.80;;;;;;5072735;28;20447;-44
2022/03/31 02:03:33;;;;;;;10.30;9.23;;;8.10;91.80;;;;;;5073043;28;20937;-44
2022/03/31 02:06:00;;;;;;;12.70;8.93;;;7.90;91.90;;;;;;5073241;28;20455;-44
2022/03/31 02:08:28;;;;;;;8.50;7.40;;;7.90;92.10;;;;;;5072822;28;20445;-45
2022/03/31 02:10:55;;;;;;;10.70;7.30;;;8.00;92.10;;;;;;5072805;28;20538;-44
2022/03/31 02:13:22;;;;;;;8.40;7.20;;;8.00;92.10;;;;;;5072802;28;20447;-43
2022/03/31 02:15:51;;;;;;;7.53;6.73;;;8.10;92.10;;;;;;5072994;28;20449;-45
2022/03/31 02:18:18;;;;;;;11.10;7.50;;;8.10;91.90;;;;;;5072740;28;20448;-43
2022/03/31 02:20:45;;;;;;;9.50;6.97;;;8.10;91.80;;;;;;5072206;28;20472;-44
2022/03/31 02:23:12;;;;;;;9.43;6.30;;;8.00;91.70;;;;;;5072237;28;20444;-44
2022/03/31 02:25:39;;;;;;;10.00;7.43;;;8.00;91.70;;;;;;5072323;28;20448;-43
2022/03/31 02:28:07;;;;;;;11.43;7.67;;;8.00;91.80;;;;;;5072814;28;20447;-44
2022/03/31 02:30:34;;;;;;;11.43;7.87;;;8.00;91.90;;;;;;5072238;28;20480;-44
2022/03/31 02:33:03;;;;;;;9.10;7.60;;;8.10;92.10;;;;;;5072671;28;20848;-44
2022/03/31 02:35:30;;;;;;;8.97;7.63;;;8.10;92.10;;;;;;5072402;28;20929;-43
2022/03/31 02:37:57;;;;;;;9.37;7.50;;;8.10;92.10;;;;;;5072198;28;20534;-44
2022/03/31 02:40:24;;;;;;;8.30;6.87;;;8.10;92.00;;;;;;5071917;28;21000;-44
2022/03/31 02:42:51;;;;;;;7.50;6.63;;;8.10;92.10;;;;;;5072555;28;20476;-44
2022/03/31 02:45:19;;;;;;;6.90;6.20;;;8.00;92.00;;;;;;5072176;28;20479;-45
2022/03/31 02:47:47;;;;;;;7.87;6.60;;;7.60;92.30;;;;;;5072271;28;20444;-44
2022/03/31 02:50:17;;;;;;;9.60;7.40;;;7.50;92.80;;;;;;5071554;28;21059;-44
2022/03/31 02:55:29;;;;;;;7.90;7.10;;;7.70;92.80;;;;;;5071610;28;20474;-44
2022/03/31 02:57:57;;;;;;;10.70;6.97;;;7.80;92.90;;;;;;5071881;28;20448;-44
2022/03/31 03:00:25;;;;;;;9.73;8.10;;;7.90;93.00;;;;;;5071491;28;20551;-44
2022/03/31 03:02:53;;;;;;;11.73;7.53;;;7.90;92.90;;;;;;5071984;28;20480;-45
2022/03/31 03:05:22;;;;;;;11.30;7.50;;;8.00;93.10;;;;;;5071985;28;20524;-44
2022/03/31 03:07:48;;;;;;;8.07;6.83;;;8.00;92.90;;;;;;5071636;28;20476;-44
2022/03/31 03:10:15;;;;;;;9.93;7.60;;;8.00;92.90;;;;;;5071259;28;20558;-44
2022/03/31 03:12:43;;;;;;;9.60;7.20;;;8.10;92.70;;;;;;5072019;28;20436;-43
2022/03/31 03:15:11;;;;;;;10.40;7.27;;;8.10;92.70;;;;;;5071313;28;20476;-44
2022/03/31 03:17:42;;;;;;;9.67;7.60;;;8.10;93.00;;;;;;5071542;28;20861;-44
2022/03/31 03:20:13;;;;;;;7.47;6.50;;;8.10;92.90;;;;;;5071168;28;20464;-44
2022/03/31 03:22:42;;;;;;;11.43;7.17;;;8.10;92.80;;;;;;5071539;28;20498;-44
2022/03/31 03:25:10;;;;;;;8.70;6.97;;;8.20;92.70;;;;;;5071302;28;20834;-44
2022/03/31 03:27:37;;;;;;;9.60;7.90;;;8.20;92.80;;;;;;5071390;28;20449;-45
2022/03/31 03:30:05;;;;;;;9.70;7.00;;;8.20;92.70;;;;;;5070912;28;20567;-44
2022/03/31 03:32:32;;;;;;;10.67;7.20;;;8.00;92.70;;;;;;5071410;28;20476;-44
2022/03/31 03:34:59;;;;;;;8.90;7.33;;;8.10;92.90;;;;;;5071346;28;20472;-43
2022/03/31 03:37:25;;;;;;;8.23;7.30;;;8.00;93.00;;;;;;5071464;28;20534;-43
2022/03/31 03:39:54;;;;;;;9.27;8.07;;;8.00;93.10;;;;;;5071276;28;20487;-44
2022/03/31 03:42:21;;;;;;;7.40;6.70;;;7.70;92.80;;;;;;5071029;28;20518;-44
2022/03/31 03:44:48;;;;;;;8.00;7.20;;;7.50;93.30;;;;;;5071344;28;20865;-44
2022/03/31 03:47:15;;;;;;;7.90;6.93;;;7.50;93.50;;;;;;5071344;28;20472;-44
2022/03/31 03:49:42;;;;;;;11.57;7.83;;;7.70;93.60;;;;;;5070913;28;20476;-44
2022/03/31 03:52:09;;;;;;;9.03;7.37;;;7.80;93.30;;;;;;5071463;28;20449;-45
2022/03/31 03:54:36;;;;;;;9.63;7.47;;;7.90;93.30;;;;;;5071204;28;20436;-43
2022/03/31 03:57:05;;;;;;;10.93;7.10;;;8.00;93.00;;;;;;5070796;28;20531;-45
2022/03/31 03:59:32;;;;;;;7.50;6.67;;;8.10;93.00;;;;;;5070546;28;20460;-44
2022/03/31 04:01:59;;;;;;;7.83;6.43;;;8.10;92.80;;;;;;5071771;28;20444;-44
2022/03/31 04:04:27;;;;;;;8.20;6.90;;;8.20;93.00;;;;;;5077519;28;20494;-44
2022/03/31 04:06:54;;;;;;;9.33;6.40;;;8.20;93.20;;;;;;5077758;28;20467;-44
2022/03/31 04:09:21;;;;;;;10.60;7.00;;;8.10;93.20;;;;;;5077307;28;20575;-44
2022/03/31 04:11:48;;;;;;;7.37;6.67;;;8.10;93.00;;;;;;5077619;28;20476;-44
2022/03/31 04:14:17;;;;;;;8.47;7.33;;;8.10;93.10;;;;;;5077400;28;20478;-44
2022/03/31 04:16:44;;;;;;;7.23;6.20;;;8.10;93.40;;;;;;5077875;28;20447;-44
2022/03/31 04:19:11;;;;;;;10.50;7.50;;;8.10;93.40;;;;;;5077097;28;20470;-44
2022/03/31 04:21:38;;;;;;;9.40;7.27;;;8.00;93.50;;;;;;5077942;28;20476;-44
2022/03/31 04:24:06;;;;;;;9.13;7.13;;;8.00;93.60;;;;;;5077475;28;20527;-44
2022/03/31 04:26:34;;;;;;;7.73;6.43;;;8.00;93.60;;;;;;5077370;28;20472;-44
2022/03/31 04:29:01;;;;;;;7.60;6.80;;;8.10;93.60;;;;;;5077129;28;20551;-43
2022/03/31 04:31:30;;;;;;;9.37;6.93;;;8.10;93.50;;;;;;5077400;28;20444;-44
2022/03/31 04:33:57;;;;;;;9.13;7.57;;;8.10;93.40;;;;;;5077313;28;20447;-44
2022/03/31 04:36:24;;;;;;;8.30;7.53;;;8.20;93.30;;;;;;5077355;28;20472;-44
2022/03/31 04:38:51;;;;;;;8.57;6.97;;;8.20;93.80;;;;;;5077397;28;20941;-44
2022/03/31 04:41:18;;;;;;;9.13;7.00;;;8.10;94.20;;;;;;5077525;28;20515;-44
2022/03/31 04:43:45;;;;;;;8.20;7.37;;;7.90;94.50;;;;;;5077507;28;20860;-44
2022/03/31 04:46:11;;;;;;;11.50;7.20;;;7.90;94.60;;;;;;5077338;28;20895;-44
2022/03/31 04:48:40;;;;;;;8.33;7.10;;;8.00;94.90;;;;;;5077447;28;20476;-44
2022/03/31 04:51:07;;;;;;;8.07;7.20;;;8.00;94.90;;;;;;5077032;28;20483;-44
2022/03/31 04:53:34;;;;;;;10.07;7.80;;;8.00;95.00;;;;;;5077377;28;20875;-44
2022/03/31 04:56:00;;;;;;;8.37;7.30;;;8.10;95.10;;;;;;5076844;28;20538;-45
2022/03/31 04:58:28;;;;;;;8.40;7.20;;;8.10;95.00;;;;;;5077038;28;20483;-44
2022/03/31 05:00:55;;;;;;;8.70;7.23;;;8.00;94.80;;;;;;5077075;28;20527;-44
2022/03/31 05:03:22;;;;;;;10.93;7.97;;;8.00;94.40;;;;;;5077134;28;20448;-44
2022/03/31 05:05:51;;;;;;;9.50;7.67;;;8.00;94.30;;;;;;5076821;28;20451;-44
2022/03/31 05:08:17;;;;;;;8.03;7.23;;;8.00;94.50;;;;;;5077457;28;20483;-44
2022/03/31 05:10:45;;;;;;;14.63;12.83;;;8.00;94.70;;;;;;5076731;28;20515;-44
2022/03/31 05:13:12;;;;;;;14.93;11.30;;;8.10;94.80;;;;;;5077189;28;20455;-45
2022/03/31 05:15:39;;;;;;;9.90;7.50;;;8.00;95.00;;;;;;5072754;28;20479;-44
2022/03/31 05:18:06;;;;;;;10.20;8.20;;;8.00;95.00;;;;;;5074021;28;21143;-44
2022/03/31 05:20:34;;;;;;;13.07;8.63;;;8.10;95.30;;;;;;5073518;28;20547;-44
2022/03/31 05:23:02;;;;;;;11.80;7.87;;;8.10;95.30;;;;;;5073804;28;20444;-44
2022/03/31 05:25:29;;;;;;;9.10;8.20;;;8.00;95.30;;;;;;5073868;28;20468;-44
2022/03/31 05:27:58;;;;;;;11.30;10.20;;;8.00;95.50;;;;;;5073501;28;20976;-44
2022/03/31 05:30:25;;;;;;;11.03;9.87;;;8.10;95.40;;;;;;5073590;28;20519;-44
2022/03/31 05:32:53;;;;;;;11.07;8.60;;;8.10;95.40;;;;;;5073563;28;20527;-44
2022/03/31 05:35:21;;;;;;;26.80;21.47;;;8.10;95.90;;;;;;5073748;28;20471;-44
2022/03/31 05:37:48;;;;;;;21.87;15.10;;;8.10;96.20;;;;;;5073519;28;20531;-44
2022/03/31 05:40:17;;;;;;;16.40;12.30;;;8.10;96.40;;;;;;5073245;28;20539;-44
2022/03/31 05:42:45;;;;;;;12.77;9.83;;;8.20;96.90;;;;;;5073415;28;20472;-44
2022/03/31 05:45:13;;;;;;;13.43;9.47;;;8.20;96.90;;;;;;5073737;28;20534;-45
2022/03/31 05:47:41;;;;;;;12.33;8.43;;;8.20;96.90;;;;;;5073615;28;20468;-44
2022/03/31 05:50:09;;;;;;;9.40;7.93;;;8.20;97.10;;;;;;5073176;28;20567;-44
2022/03/31 05:52:38;;;;;;;13.67;9.87;;;8.20;96.70;;;;;;5073355;28;20535;-44
2022/03/31 05:55:06;;;;;;;13.63;8.87;;;8.30;96.60;;;;;;5073335;28;20468;-44
2022/03/31 05:57:35;;;;;;;15.73;9.07;;;8.30;96.70;;;;;;5073555;28;20527;-44
2022/03/31 06:00:04;;;;;;;10.60;9.50;;;8.30;96.70;;;;;;5073096;28;20513;-44
2022/03/31 06:02:31;;;;;;;12.00;8.43;;;8.30;96.70;;;;;;5072971;28;20530;-44
2022/03/31 06:04:58;;;;;;;12.70;8.90;;;8.30;96.90;;;;;;5073049;28;20695;-44
2022/03/31 06:07:25;;;;;;;10.67;8.70;;;8.30;97.20;;;;;;5072880;28;20476;-44
2022/03/31 06:09:52;;;;;;;10.07;9.00;;;8.30;97.60;;;;;;5072362;28;21017;-44
2022/03/31 06:12:19;;;;;;;9.20;7.70;;;8.40;97.80;;;;;;5073022;28;20532;-44
2022/03/31 06:14:48;;;;;;;11.37;8.10;;;8.40;97.60;;;;;;5073123;28;20449;-44
2022/03/31 06:17:15;;;;;;;9.00;7.97;;;8.40;97.60;;;;;;5072899;28;20476;-44
2022/03/31 06:19:42;;;;;;;9.50;8.30;;;8.40;97.80;;;;;;5072265;28;20922;-44
2022/03/31 06:22:09;;;;;;;8.80;7.43;;;8.50;98.30;;;;;;5072680;28;20481;-44
2022/03/31 06:24:36;;;;;;;10.40;7.60;;;8.50;98.10;;;;;;5072554;28;20473;-44
2022/03/31 06:27:06;;;;;;;11.40;10.30;;;8.50;98.50;;;;;;5072641;28;20441;-44
2022/03/31 06:29:33;;;;;;;13.07;9.67;;;8.40;98.90;;;;;;5070619;28;20921;-44
2022/03/31 06:32:03;;;;;;;11.60;8.53;;;8.40;99.40;;;;;;5072418;28;20479;-44
2022/03/31 06:34:30;;;;;;;10.77;9.50;;;8.40;99.70;;;;;;5072626;28;20440;-44
2022/03/31 06:36:57;;;;;;;11.53;10.43;;;8.40;99.90;;;;;;5072406;28;20444;-44
2022/03/31 06:39:25;;;;;;;11.07;9.93;;;8.40;99.90;;;;;;5071748;28;20547;-44
2022/03/31 06:41:52;;;;;;;17.20;12.93;;;8.40;99.90;;;;;;5072090;28;20452;-44
2022/03/31 06:44:21;;;;;;;25.70;19.00;;;8.40;99.90;;;;;;5072432;28;20535;-44
2022/03/31 06:46:48;;;;;;;18.67;12.80;;;8.40;99.90;;;;;;5071863;28;20450;-45
2022/03/31 06:49:16;;;;;;;11.90;9.93;;;8.50;99.90;;;;;;5071675;28;20826;-44
2022/03/31 06:51:44;;;;;;;12.20;10.73;;;8.50;99.90;;;;;;5071921;28;20575;-44
2022/03/31 06:54:11;;;;;;;11.53;9.97;;;8.50;99.90;;;;;;5072211;28;20448;-44
2022/03/31 06:56:38;;;;;;;11.00;9.87;;;8.50;99.90;;;;;;5071206;28;20468;-44
2022/03/31 06:59:05;;;;;;;11.83;10.60;;;8.50;99.90;;;;;;5071594;28;20500;-44
2022/03/31 07:01:32;;;;;;;13.17;11.27;;;8.50;99.90;;;;;;5071670;28;20475;-44
2022/03/31 07:03:59;;;;;;;15.77;13.70;;;8.50;99.90;;;;;;5072013;28;20447;-44
2022/03/31 07:06:28;;;;;;;12.97;11.20;;;8.40;99.90;;;;;;5071774;28;20487;-44
2022/03/31 07:08:55;;;;;;;11.73;10.40;;;8.40;99.90;;;;;;5071480;28;20845;-45
2022/03/31 07:11:22;;;;;;;10.07;9.07;;;8.50;99.90;;;;;;5071703;28;20571;-44
2022/03/31 07:13:49;;;;;;;12.20;9.80;;;8.50;99.90;;;;;;5071673;28;20450;-44
2022/03/31 07:16:17;;;;;;;11.53;9.57;;;8.50;99.90;;;;;;5071454;28;20444;-44
2022/03/31 07:18:45;;;;;;;10.87;9.20;;;8.60;99.90;;;;;;5071441;28;20440;-45
2022/03/31 07:21:12;;;;;;;12.30;10.20;;;8.60;99.90;;;;;;5072456;28;20475;-45
2022/03/31 07:23:41;;;;;;;14.83;11.27;;;8.60;99.90;;;;;;5071477;28;20479;-44
2022/03/31 07:26:08;;;;;;;13.37;9.93;;;8.60;99.90;;;;;;5071304;28;20448;-49
2022/03/31 07:28:35;;;;;;;12.90;10.87;;;8.70;99.90;;;;;;5071693;28;20475;-44
2022/03/31 07:31:02;;;;;;;13.17;11.83;;;8.70;99.90;;;;;;5071118;28;20512;-44
2022/03/31 07:33:29;;;;;;;14.80;13.33;;;8.70;99.90;;;;;;5071249;28;21008;-44
2022/03/31 07:35:56;;;;;;;16.07;12.20;;;8.80;99.90;;;;;;5071475;28;20527;-44
2022/03/31 07:38:23;;;;;;;17.70;12.83;;;8.80;99.90;;;;;;5070725;28;20472;-45
2022/03/31 07:40:51;;;;;;;15.80;11.87;;;8.80;99.90;;;;;;5070948;28;20536;-45
2022/03/31 07:43:18;;;;;;;23.03;13.53;;;8.90;99.90;;;;;;5071313;28;20841;-44
2022/03/31 07:45:47;;;;;;;14.43;10.27;;;8.80;99.90;;;;;;5071208;28;20985;-43
2022/03/31 07:48:16;;;;;;;13.53;12.13;;;8.80;99.90;;;;;;5071241;28;20444;-45
2022/03/31 07:50:43;;;;;;;12.30;11.00;;;8.80;99.90;;;;;;5070761;28;20476;-44
2022/03/31 07:53:11;;;;;;;13.00;11.70;;;8.80;99.90;;;;;;5070912;28;20471;-45
2022/03/31 07:55:39;;;;;;;17.70;10.50;;;8.70;99.90;;;;;;5070599;28;20460;-44
2022/03/31 07:58:07;;;;;;;17.70;11.70;;;8.70;99.90;;;;;;5071470;28;20532;-44
2022/03/31 08:00:34;;;;;;;11.50;10.30;;;8.70;99.90;;;;;;5070972;28;20883;-44
2022/03/31 08:03:01;;;;;;;11.53;9.20;;;8.60;99.90;;;;;;5071050;28;20528;-44
2022/03/31 08:05:30;;;;;;;10.20;9.17;;;8.60;99.90;;;;;;5071112;28;20448;-44
2022/03/31 08:07:57;;;;;;;11.70;10.50;;;8.70;99.90;;;;;;5070802;28;20541;-48
2022/03/31 08:10:25;;;;;;;11.40;9.13;;;8.80;99.90;;;;;;5070763;28;20487;-44
2022/03/31 08:12:52;;;;;;;17.37;9.87;;;8.80;99.90;;;;;;5070817;28;20876;-45
2022/03/31 08:15:22;;;;;;;13.70;9.83;;;8.90;99.90;;;;;;5071166;28;20532;-44
2022/03/31 08:17:50;;;;;;;16.30;11.23;;;9.00;99.90;;;;;;5071435;28;20542;-44
2022/03/31 08:20:18;;;;;;;12.77;9.50;;;9.10;99.90;;;;;;5070416;28;20514;-44
2022/03/31 08:22:46;;;;;;;11.07;9.87;;;9.00;99.90;;;;;;5070689;28;20472;-44
2022/03/31 08:25:13;;;;;;;11.13;9.10;;;9.10;99.90;;;;;;5071182;28;20814;-44
2022/03/31 08:27:41;;;;;;;14.30;11.73;;;9.10;99.90;;;;;;5070953;28;20445;-46
2022/03/31 08:30:11;;;;;;;18.77;10.03;;;9.10;99.90;;;;;;5068762;28;20491;-49
2022/03/31 08:32:42;;;;;;;13.77;10.80;;;9.10;99.90;;;;;;5070558;28;20479;-46
2022/03/31 08:35:10;;;;;;;10.77;9.33;;;9.20;99.90;;;;;;5070805;28;20452;-47
2022/03/31 08:37:38;;;;;;;13.40;10.70;;;9.30;99.90;;;;;;5070832;28;20525;-45
2022/03/31 08:40:07;;;;;;;15.33;10.30;;;9.40;99.90;;;;;;5070228;28;20555;-48
2022/03/31 08:42:35;;;;;;;12.97;11.60;;;9.40;99.90;;;;;;5070310;28;20869;-44
2022/03/31 08:45:02;;;;;;;12.20;10.83;;;9.50;99.90;;;;;;5070312;28;20841;-45
2022/03/31 08:47:29;;;;;;;15.37;10.90;;;9.40;99.90;;;;;;5070661;28;20464;-47
2022/03/31 08:49:58;;;;;;;12.77;10.40;;;9.40;99.90;;;;;;5072740;28;20499;-44
2022/03/31 08:52:25;;;;;;;10.40;9.27;;;9.40;99.90;;;;;;5074152;28;20989;-44
2022/03/31 08:54:52;;;;;;;12.40;10.33;;;9.40;99.90;;;;;;5073936;28;20539;-45
2022/03/31 08:57:20;;;;;;;12.83;10.20;;;9.40;99.90;;;;;;5073969;28;20474;-46
2022/03/31 08:59:48;;;;;;;16.60;10.03;;;9.40;99.90;;;;;;5073845;28;20551;-44
2022/03/31 09:02:25;;;;;;;12.03;10.20;;;9.40;99.90;;;;;;5074197;28;20440;-44
2022/03/31 09:05:04;;;;;;;12.57;9.30;;;9.50;99.90;;;;;;5074365;28;20468;-44
2022/03/31 09:07:31;;;;;;;11.50;10.40;;;9.60;99.90;;;;;;5074077;28;20468;-45
2022/03/31 09:09:58;;;;;;;11.33;9.83;;;9.60;99.90;;;;;;5074108;28;20982;-44
2022/03/31 09:12:27;;;;;;;14.53;10.40;;;9.60;99.90;;;;;;5074031;28;20567;-48
2022/03/31 09:14:54;;;;;;;11.30;10.10;;;9.70;99.90;;;;;;5074007;28;20470;-44
2022/03/31 09:17:22;;;;;;;11.73;9.60;;;9.70;99.90;;;;;;5073868;28;20448;-47
2022/03/31 09:19:57;;;;;;;11.80;9.93;;;9.70;99.90;;;;;;5073484;28;20525;-44
2022/03/31 09:22:25;;;;;;;12.80;10.07;;;9.70;99.90;;;;;;5073355;28;20462;-45
2022/03/31 09:25:02;;;;;;;11.40;9.80;;;9.70;99.90;;;;;;5073652;28;20539;-46
2022/03/31 09:27:29;;;;;;;12.17;10.40;;;9.60;99.90;;;;;;5073819;28;20443;-46
2022/03/31 09:30:05;;;;;;;10.77;9.47;;;9.50;99.90;;;;;;5073404;28;20503;-44
2022/03/31 09:32:32;;;;;;;12.67;9.43;;;9.50;99.90;;;;;;5073763;28;20551;-44
2022/03/31 09:35:07;;;;;;;10.13;9.13;;;9.40;99.90;;;;;;5073541;28;20448;-45
2022/03/31 09:37:35;;;;;;;10.43;9.13;;;9.50;99.90;;;;;;5073813;28;20919;-44
2022/03/31 09:40:02;;;;;;;12.43;9.87;;;9.50;99.90;;;;;;5073169;28;20542;-44
2022/03/31 09:42:29;;;;;;;11.50;9.57;;;9.50;99.90;;;;;;5073580;28;20447;-45
2022/03/31 09:44:57;;;;;;;8.57;7.80;;;9.50;99.90;;;;;;5073170;28;20531;-44
2022/03/31 09:47:26;;;;;;;13.70;9.50;;;9.50;99.90;;;;;;5073807;28;20476;-44
2022/03/31 09:49:54;;;;;;;13.43;10.87;;;9.50;99.90;;;;;;5072978;28;20973;-44
2022/03/31 09:52:21;;;;;;;12.00;9.90;;;9.60;99.90;;;;;;5073667;28;20481;-44
2022/03/31 09:54:51;;;;;;;17.37;10.90;;;9.50;99.90;;;;;;5073010;28;20945;-45
2022/03/31 09:57:22;;;;;;;12.10;9.30;;;9.60;99.90;;;;;;5073037;28;20440;-44
2022/03/31 09:59:52;;;;;;;12.70;11.40;;;9.50;99.90;;;;;;5072751;28;20488;-45
2022/03/31 10:02:20;;;;;;;12.70;10.37;;;9.50;99.90;;;;;;5072863;28;20441;-44
2022/03/31 10:04:48;;;;;;;13.17;10.23;;;9.40;99.90;;;;;;5073045;28;20444;-45
2022/03/31 10:07:16;;;;;;;12.27;10.90;;;9.30;99.90;;;;;;5072710;28;20448;-48
2022/03/31 10:09:44;;;;;;;13.83;11.10;;;9.30;99.90;;;;;;5072877;28;20496;-48
2022/03/31 10:12:19;;;;;;;11.87;10.60;;;9.30;99.90;;;;;;5072649;28;20498;-47
2022/03/31 10:14:52;;;;;;;12.40;11.23;;;9.30;99.90;;;;;;5073133;28;20522;-44
2022/03/31 10:17:25;;;;;;;12.93;11.70;;;9.30;99.90;;;;;;5073064;28;20562;-48
2022/03/31 10:19:53;;;;;;;14.17;12.67;;;9.20;99.90;;;;;;5072330;28;20472;-44
2022/03/31 10:25:08;;;;;;;13.20;11.80;;;9.20;99.90;;;;;;5072134;28;20506;-51
2022/03/31 10:27:40;;;;;;;14.67;11.90;;;9.10;99.90;;;;;;5078121;28;20451;-44
2022/03/31 10:30:12;;;;;;;11.33;9.70;;;9.00;99.90;;;;;;5079594;28;20964;-45
2022/03/31 10:32:51;;;;;;;14.73;12.77;;;9.00;99.90;;;;;;5079110;28;20563;-44
2022/03/31 10:35:23;;;;;;;16.33;11.60;;;9.00;99.90;;;;;;5079320;28;20519;-44
2022/03/31 10:37:50;;;;;;;14.57;12.07;;;9.00;99.90;;;;;;5081236;28;20523;-44
2022/03/31 10:40:29;;;;;;;12.70;11.37;;;8.90;99.90;;;;;;5082062;28;20919;-44
2022/03/31 10:42:57;;;;;;;14.90;12.17;;;8.90;99.90;;;;;;5081152;28;20456;-45
2022/03/31 10:45:35;;;;;;;15.63;11.70;;;8.90;99.90;;;;;;5080765;28;20523;-44
2022/03/31 10:48:14;;;;;;;15.00;13.13;;;8.90;99.90;;;;;;5080194;28;20490;-44
2022/03/31 10:50:41;;;;;;;19.63;13.73;;;8.80;99.90;;;;;;5072073;28;20899;-44
2022/03/31 10:53:08;;;;;;;15.90;12.23;;;8.80;99.90;;;;;;5070953;28;20571;-47
2022/03/31 10:55:37;;;;;;;15.50;12.50;;;8.80;99.90;;;;;;5070592;28;20476;-46
2022/03/31 10:58:07;;;;;;;15.57;12.00;;;8.80;99.90;;;;;;5070709;28;20440;-46
2022/03/31 11:00:34;;;;;;;14.03;12.20;;;8.80;99.90;;;;;;5071022;28;20483;-44
2022/03/31 11:03:01;;;;;;;15.37;12.27;;;8.80;99.90;;;;;;5071703;28;20532;-44
2022/03/31 11:05:29;;;;;;;14.97;13.13;;;8.70;99.90;;;;;;5071901;28;21015;-44
2022/03/31 11:08:03;;;;;;;14.13;12.67;;;8.80;99.90;;;;;;5071745;28;20498;-44
2022/03/31 11:10:42;;;;;;;20.90;14.43;;;8.80;99.90;;;;;;5071266;28;20969;-44
2022/03/31 11:13:11;;;;;;;20.90;12.90;;;8.80;99.90;;;;;;5070947;28;20502;-46
2022/03/31 11:15:38;;;;;;;15.90;14.20;;;8.80;99.90;;;;;;5071752;28;20967;-44
2022/03/31 11:18:05;;;;;;;18.73;14.37;;;8.90;99.90;;;;;;5071870;28;20523;-44
2022/03/31 11:20:32;;;;;;;19.10;14.93;;;8.90;99.90;;;;;;5071515;28;20505;-44
2022/03/31 11:23:04;;;;;;;19.40;14.77;;;8.90;99.90;;;;;;5071575;28;20475;-48
2022/03/31 11:25:31;;;;;;;17.80;13.80;;;8.90;99.90;;;;;;5071624;28;20452;-45
2022/03/31 11:27:58;;;;;;;19.37;15.10;;;8.90;99.90;;;;;;5071537;28;20528;-44
2022/03/31 11:30:32;;;;;;;16.00;14.30;;;8.90;99.90;;;;;;5071615;28;20496;-44
2022/03/31 11:33:00;;;;;;;19.70;14.77;;;8.90;99.90;;;;;;5071231;28;20484;-45
2022/03/31 11:35:29;;;;;;;16.83;14.80;;;9.00;99.90;;;;;;5070772;28;20448;-44
2022/03/31 11:37:59;;;;;;;20.17;14.27;;;8.90;99.90;;;;;;5071873;28;20479;-44
2022/03/31 11:40:29;;;;;;;17.87;14.77;;;8.90;99.90;;;;;;5071084;28;20466;-47
2022/03/31 11:42:58;;;;;;;15.80;14.20;;;8.80;99.90;;;;;;5071344;28;21023;-44
2022/03/31 11:45:33;;;;;;;17.83;15.73;;;8.90;99.90;;;;;;5071257;28;20892;-48
2022/03/31 11:48:01;;;;;;;18.70;16.50;;;8.90;99.90;;;;;;5071038;28;20960;-44
2022/03/31 11:50:30;;;;;;;19.37;17.27;;;8.80;99.90;;;;;;5071067;28;20507;-44
2022/03/31 11:52:57;;;;;;;18.00;15.10;;;8.80;99.90;;;;;;5070787;28;20907;-44
2022/03/31 11:55:24;;;;;;;19.23;16.87;;;8.80;99.90;;;;;;5071124;28;20524;-45
2022/03/31 11:57:56;;;;;;;20.47;16.43;;;8.80;99.90;;;;;;5071285;28;20494;-44
2022/03/31 12:00:25;;;;;;;22.87;18.13;;;8.80;99.90;;;;;;5070629;28;20552;-44
2022/03/31 12:02:58;;;;;;;18.10;16.13;;;8.80;99.90;;;;;;5070851;28;20523;-48
2022/03/31 12:05:25;;;;;;;19.47;16.57;;;8.90;99.90;;;;;;5071065;28;20480;-45
2022/03/31 12:07:53;;;;;;;22.97;17.70;;;8.90;99.90;;;;;;5070918;28;20869;-48
2022/03/31 12:10:20;;;;;;;19.87;17.33;;;9.00;99.90;;;;;;5070834;28;20539;-45
2022/03/31 12:12:49;;;;;;;19.50;16.83;;;9.20;99.90;;;;;;5070581;28;20498;-45
2022/03/31 12:15:24;;;;;;;20.97;15.80;;;9.10;99.90;;;;;;5069564;28;20456;-45
2022/03/31 12:18:05;;;;;;;23.90;17.77;;;9.10;99.90;;;;;;5069395;28;20475;-48
2022/03/31 12:20:33;;;;;;;17.47;14.90;;;9.10;99.90;;;;;;5069228;28;20511;-44
2022/03/31 12:23:02;;;;;;;17.67;15.60;;;9.00;99.90;;;;;;5069069;28;20436;-48
2022/03/31 12:25:31;;;;;;;20.83;16.63;;;9.00;99.90;;;;;;5073259;28;21028;-44
2022/03/31 12:28:00;;;;;;;19.90;14.53;;;9.10;99.90;;;;;;5073595;28;20479;-44
2022/03/31 12:30:38;;;;;;;19.13;15.23;;;9.20;99.90;;;;;;5073553;28;20467;-44
2022/03/31 12:33:16;;;;;;;18.87;16.87;;;9.20;99.90;;;;;;5074677;28;20563;-45
2022/03/31 12:35:43;;;;;;;17.13;15.37;;;9.30;99.90;;;;;;5074318;28;20523;-45
2022/03/31 12:38:10;;;;;;;19.53;15.57;;;9.40;99.90;;;;;;5074861;28;20527;-46
2022/03/31 12:40:43;;;;;;;18.27;16.20;;;9.30;99.90;;;;;;5074403;28;20494;-44
2022/03/31 12:43:10;;;;;;;19.70;16.23;;;9.20;99.90;;;;;;5074364;28;20495;-44
2022/03/31 12:45:37;;;;;;;17.87;15.37;;;9.10;99.90;;;;;;5074485;28;20454;-47
2022/03/31 12:48:11;;;;;;;20.80;17.00;;;9.10;99.90;;;;;;5074164;28;20444;-44
2022/03/31 12:50:40;;;;;;;24.77;17.40;;;9.10;99.90;;;;;;5073978;28;20498;-45
2022/03/31 12:53:07;;;;;;;19.83;15.57;;;9.10;99.90;;;;;;5074411;28;20488;-44
2022/03/31 12:55:36;;;;;;;17.53;14.70;;;9.20;99.90;;;;;;5074496;28;20490;-44
2022/03/31 12:58:05;;;;;;;20.57;16.60;;;9.20;99.90;;;;;;5074492;28;20487;-44